createdAt,value
2023-02-28T00:00:36.364Z,3.80
2023-02-28T00:03:05.451Z,3.60
2023-02-28T00:05:33.387Z,3.40
2023-02-28T00:08:40.585Z,4.20
2023-02-28T00:11:10.801Z,4.20
2023-02-28T00:13:40.319Z,3.60
2023-02-28T00:16:10.237Z,3.50
2023-02-28T00:18:38.769Z,3.70
2023-02-28T00:21:08.151Z,3.40
2023-02-28T00:23:37.740Z,3.50
2023-02-28T00:26:06.821Z,3.40
2023-02-28T00:28:37.386Z,3.00
2023-02-28T00:31:05.173Z,3.30
2023-02-28T00:33:33.404Z,2.90
2023-02-28T00:36:09.229Z,3.40
2023-02-28T00:38:39.889Z,3.50
2023-02-28T00:41:07.674Z,3.90
2023-02-28T00:43:35.686Z,3.70
2023-02-28T00:46:03.456Z,3.30
2023-02-28T00:48:32.702Z,3.40
2023-02-28T00:51:01.705Z,3.90
2023-02-28T00:53:33.333Z,4.60
2023-02-28T00:56:01.101Z,3.40
2023-02-28T00:58:31.734Z,3.20
2023-02-28T01:00:59.893Z,3.10
2023-02-28T01:03:31.542Z,4.10
2023-02-28T01:05:59.085Z,3.60
2023-02-28T01:08:27.293Z,4.30
2023-02-28T01:10:58.271Z,4.30
2023-02-28T01:13:27.622Z,3.90
2023-02-28T01:15:56.863Z,4.90
2023-02-28T01:18:25.227Z,6.20
2023-02-28T01:20:53.042Z,4.80
2023-02-28T01:23:22.096Z,4.60
2023-02-28T01:25:52.960Z,5.40
2023-02-28T01:28:20.589Z,4.70
2023-02-28T01:30:50.108Z,4.20
2023-02-28T01:33:18.549Z,3.80
2023-02-28T01:35:45.635Z,4.00
2023-02-28T01:38:22.056Z,4.20
2023-02-28T01:40:50.447Z,4.50
2023-02-28T01:43:28.570Z,4.50
2023-02-28T01:45:57.161Z,4.00
2023-02-28T01:48:28.765Z,3.50
2023-02-28T01:50:56.775Z,4.00
2023-02-28T01:53:28.728Z,3.50
2023-02-28T01:56:00.692Z,3.40
2023-02-28T01:58:27.854Z,3.90
2023-02-28T02:00:56.190Z,4.00
2023-02-28T02:03:23.527Z,4.00
2023-02-28T02:05:50.511Z,3.40
2023-02-28T02:08:20.245Z,4.00
2023-02-28T02:10:51.661Z,3.70
2023-02-28T02:13:40.504Z,4.00
2023-02-28T02:16:37.349Z,4.20
2023-02-28T02:19:25.277Z,3.50
2023-02-28T02:22:11.576Z,3.20
2023-02-28T02:25:11.343Z,3.80
2023-02-28T02:28:23.924Z,3.70
2023-02-28T02:31:05.542Z,3.80
2023-02-28T02:34:18.548Z,3.80
2023-02-28T02:36:59.956Z,3.90
2023-02-28T02:39:42.402Z,3.90
2023-02-28T02:42:21.842Z,4.10
2023-02-28T02:44:54.542Z,3.50
2023-02-28T02:47:22.568Z,4.90
2023-02-28T02:49:52.099Z,3.80
2023-02-28T02:52:21.712Z,4.70
2023-02-28T02:54:56.688Z,4.40
2023-02-28T02:57:27.347Z,3.90
2023-02-28T02:59:54.741Z,4.40
2023-02-28T03:03:45.335Z,4.00
2023-02-28T03:06:20.171Z,5.10
2023-02-28T03:08:52.261Z,4.80
2023-02-28T03:11:21.943Z,4.70
2023-02-28T03:13:54.380Z,5.90
2023-02-28T03:16:51.376Z,5.20
2023-02-28T03:19:42.413Z,5.10
2023-02-28T03:22:51.244Z,5.80
2023-02-28T03:25:36.225Z,5.50
2023-02-28T03:28:24.075Z,5.60
2023-02-28T03:31:10.308Z,5.60
2023-02-28T03:33:47.465Z,7.30
2023-02-28T03:36:18.781Z,8.40
2023-02-28T03:39:17.903Z,7.70
2023-02-28T03:42:06.746Z,6.70
2023-02-28T03:44:48.233Z,5.80
2023-02-28T03:47:26.145Z,4.90
2023-02-28T03:50:02.949Z,6.20
2023-02-28T03:52:35.111Z,5.30
2023-02-28T03:55:08.328Z,5.40
2023-02-28T03:57:55.812Z,9.60
2023-02-28T04:00:34.086Z,6.50
2023-02-28T04:03:04.240Z,6.10
2023-02-28T04:05:38.063Z,6.10
2023-02-28T04:08:07.897Z,5.20
2023-02-28T04:10:36.464Z,6.80
2023-02-28T04:13:05.817Z,6.30
2023-02-28T04:15:35.610Z,5.90
2023-02-28T04:18:04.263Z,5.40
2023-02-28T04:20:35.679Z,4.90
2023-02-28T04:23:04.503Z,5.60
2023-02-28T04:25:33.089Z,5.20
2023-02-28T04:28:04.306Z,5.20
2023-02-28T04:30:35.747Z,5.50
2023-02-28T04:33:13.027Z,5.10
2023-02-28T04:35:44.615Z,5.50
2023-02-28T04:38:13.026Z,5.60
2023-02-28T04:40:43.238Z,4.60
2023-02-28T04:43:13.197Z,5.00
2023-02-28T04:45:42.940Z,4.40
2023-02-28T04:48:11.666Z,4.40
2023-02-28T04:50:41.802Z,4.60
2023-02-28T04:53:11.828Z,5.40
2023-02-28T04:55:43.734Z,5.10
2023-02-28T04:58:12.066Z,4.00
2023-02-28T05:00:41.260Z,4.50
2023-02-28T05:03:12.198Z,4.40
2023-02-28T05:05:43.443Z,5.50
2023-02-28T05:08:12.186Z,4.70
2023-02-28T05:10:43.675Z,6.10
2023-02-28T05:13:16.980Z,5.20
2023-02-28T05:15:52.673Z,5.70
2023-02-28T05:18:21.015Z,4.70
2023-02-28T05:20:50.304Z,5.30
2023-02-28T05:23:19.403Z,5.70
2023-02-28T05:25:50.839Z,5.00
2023-02-28T05:30:56.703Z,5.30
2023-02-28T05:33:25.454Z,4.40
2023-02-28T05:35:59.069Z,6.00
2023-02-28T05:38:28.817Z,4.70
2023-02-28T05:40:58.220Z,5.10
2023-02-28T05:43:28.864Z,4.30
2023-02-28T05:45:57.267Z,5.10
2023-02-28T05:48:27.509Z,4.20
2023-02-28T05:50:57.490Z,5.30
2023-02-28T05:53:45.353Z,4.40
2023-02-28T05:56:20.174Z,6.20
2023-02-28T05:58:50.798Z,4.90
2023-02-28T06:01:23.976Z,5.80
2023-02-28T06:03:55.203Z,8.30
2023-02-28T06:06:23.777Z,6.20
2023-02-28T06:08:55.868Z,6.00
2023-02-28T06:11:30.651Z,5.00
2023-02-28T06:14:00.908Z,6.10
2023-02-28T06:16:36.369Z,4.80
2023-02-28T06:19:05.981Z,4.40
2023-02-28T06:21:54.116Z,5.90
2023-02-28T06:24:25.971Z,5.90
2023-02-28T06:26:54.658Z,5.30
2023-02-28T06:29:24.038Z,6.00
2023-02-28T06:31:54.012Z,4.90
2023-02-28T06:34:22.544Z,5.50
2023-02-28T06:36:52.524Z,4.60
2023-02-28T06:39:24.287Z,5.10
2023-02-28T06:41:55.983Z,4.60
2023-02-28T06:46:56.707Z,4.50
2023-02-28T06:49:28.921Z,4.80
2023-02-28T06:58:49.142Z,4.30
2023-02-28T07:01:20.073Z,4.60
2023-02-28T07:03:53.273Z,4.20
2023-02-28T07:08:58.062Z,4.40
2023-02-28T07:11:26.678Z,4.40
2023-02-28T07:13:55.531Z,4.30
2023-02-28T07:16:24.219Z,5.00
2023-02-28T07:19:02.323Z,5.00
2023-02-28T07:21:33.706Z,3.80
2023-02-28T07:24:05.680Z,5.10
2023-02-28T07:26:34.816Z,4.40
2023-02-28T07:29:02.870Z,4.50
2023-02-28T07:31:53.120Z,4.60
2023-02-28T07:34:23.705Z,5.40
2023-02-28T07:36:56.241Z,4.40
2023-02-28T07:39:27.409Z,4.30
2023-02-28T07:42:04.582Z,4.10
2023-02-28T07:44:43.940Z,4.50
2023-02-28T07:47:11.186Z,5.10
2023-02-28T07:49:40.068Z,4.20
2023-02-28T07:52:11.945Z,4.10
2023-02-28T07:54:41.809Z,4.20
2023-02-28T07:57:12.396Z,4.20
2023-02-28T07:59:50.562Z,4.40
2023-02-28T08:05:16.029Z,4.40
2023-02-28T08:07:55.650Z,4.20
2023-02-28T08:10:27.166Z,4.30
2023-02-28T08:12:58.951Z,4.00
2023-02-28T08:15:32.326Z,4.70
2023-02-28T08:18:03.109Z,5.20
2023-02-28T08:23:06.605Z,3.70
2023-02-28T08:25:34.043Z,3.70
2023-02-28T08:28:20.620Z,4.50
2023-02-28T08:30:49.454Z,5.20
2023-02-28T08:33:16.896Z,3.90
2023-02-28T08:37:01.934Z,4.20
2023-02-28T08:39:35.714Z,4.10
2023-02-28T08:42:07.754Z,4.00
2023-02-28T08:44:47.169Z,4.00
2023-02-28T08:49:45.897Z,3.90
2023-02-28T08:52:17.607Z,3.30
2023-02-28T08:54:51.050Z,4.00
2023-02-28T08:59:49.211Z,4.10
2023-02-28T09:02:20.661Z,4.30
2023-02-28T09:04:55.163Z,4.60
2023-02-28T09:08:20.419Z,5.00
2023-02-28T09:11:02.248Z,3.60
2023-02-28T09:13:34.127Z,3.90
2023-02-28T09:16:07.519Z,4.20
2023-02-28T09:18:37.789Z,4.20
2023-02-28T09:21:13.999Z,3.80
2023-02-28T09:23:46.839Z,4.70
2023-02-28T09:26:17.212Z,4.30
2023-02-28T09:29:04.433Z,4.70
2023-02-28T09:31:34.490Z,4.80
2023-02-28T09:34:04.578Z,5.00
2023-02-28T09:36:44.696Z,4.80
2023-02-28T09:39:18.716Z,5.60
2023-02-28T09:42:08.153Z,4.30
2023-02-28T09:44:45.190Z,4.90
2023-02-28T09:47:18.730Z,5.70
2023-02-28T09:49:48.699Z,4.90
2023-02-28T09:52:25.575Z,5.30
2023-02-28T09:54:57.244Z,6.00
2023-02-28T09:57:31.922Z,5.60
2023-02-28T10:00:12.444Z,5.60
2023-02-28T10:03:19.999Z,5.90
2023-02-28T10:06:21.537Z,5.70
2023-02-28T10:09:10.221Z,5.80
2023-02-28T10:11:40.031Z,6.10
2023-02-28T10:14:24.681Z,5.50
2023-02-28T10:20:49.377Z,6.00
2023-02-28T10:24:51.786Z,5.80
2023-02-28T10:26:58.760Z,4.50
2023-02-28T10:29:35.473Z,5.10
2023-02-28T10:32:40.792Z,6.40
2023-02-28T10:35:47.676Z,6.50
2023-02-28T10:38:48.539Z,6.10
2023-02-28T10:41:35.006Z,4.90
2023-02-28T10:44:20.769Z,6.00
2023-02-28T10:47:17.155Z,6.50
2023-02-28T10:49:49.714Z,6.50
2023-02-28T10:52:37.160Z,6.00
2023-02-28T10:55:19.565Z,6.10
2023-02-28T10:57:51.517Z,6.30
2023-02-28T11:00:23.097Z,6.50
2023-02-28T11:02:50.402Z,6.20
2023-02-28T11:05:33.884Z,6.80
2023-02-28T11:08:26.306Z,6.40
2023-02-28T11:10:58.302Z,5.90
2023-02-28T11:13:30.735Z,6.30
2023-02-28T11:16:01.373Z,5.10
2023-02-28T11:18:47.301Z,5.30
2023-02-28T11:21:24.336Z,5.40
2023-02-28T11:24:03.674Z,5.50
2023-02-28T11:26:45.366Z,5.00
2023-02-28T11:29:22.089Z,5.00
2023-02-28T11:32:15.471Z,4.80
2023-02-28T11:35:02.583Z,5.80
2023-02-28T11:37:42.575Z,4.50
2023-02-28T11:40:18.069Z,5.20
2023-02-28T11:42:55.807Z,3.80
2023-02-28T11:45:44.405Z,4.80
2023-02-28T11:48:37.260Z,4.70
2023-02-28T11:51:31.432Z,4.80
2023-02-28T11:54:47.427Z,4.40
2023-02-28T11:57:18.909Z,4.60
2023-02-28T12:00:12.993Z,5.30
2023-02-28T12:03:02.369Z,5.30
2023-02-28T12:05:49.300Z,4.80
2023-02-28T12:08:50.519Z,5.40
2023-02-28T12:11:40.498Z,4.00
2023-02-28T12:14:25.946Z,4.50
2023-02-28T12:17:31.388Z,4.30
2023-02-28T12:20:45.564Z,5.50
2023-02-28T12:23:18.584Z,4.70
2023-02-28T12:26:26.487Z,4.50
2023-02-28T12:29:09.070Z,4.90
2023-02-28T12:32:10.568Z,5.00
2023-02-28T12:34:40.161Z,4.90
2023-02-28T12:37:22.812Z,4.20
2023-02-28T12:40:01.646Z,5.20
2023-02-28T12:42:32.925Z,4.60
2023-02-28T12:45:24.649Z,4.40
2023-02-28T12:48:05.261Z,4.60
2023-02-28T12:50:59.094Z,4.70
2023-02-28T12:54:11.648Z,4.70
2023-02-28T12:57:09.710Z,4.50
2023-02-28T13:00:19.791Z,4.90
2023-02-28T13:03:05.156Z,5.70
2023-02-28T13:05:39.398Z,5.50
2023-02-28T13:08:52.564Z,5.10
2023-02-28T13:11:44.297Z,5.10
2023-02-28T13:14:55.380Z,4.40
2023-02-28T13:17:26.620Z,4.90
2023-02-28T13:20:00.425Z,5.10
2023-02-28T13:22:47.885Z,4.80
2023-02-28T13:25:48.467Z,4.70
2023-02-28T13:28:59.102Z,5.70
2023-02-28T13:31:30.317Z,5.40
2023-02-28T13:34:19.664Z,4.60
2023-02-28T13:36:49.263Z,5.20
2023-02-28T13:40:00.057Z,5.30
2023-02-28T13:42:54.331Z,5.90
2023-02-28T13:45:33.115Z,5.40
2023-02-28T13:48:20.611Z,5.70
2023-02-28T13:50:51.919Z,6.10
2023-02-28T13:53:42.025Z,6.00
2023-02-28T13:56:31.168Z,5.30
2023-02-28T13:59:04.808Z,6.10
2023-02-28T14:01:54.397Z,6.10
2023-02-28T14:04:59.949Z,6.40
2023-02-28T14:07:36.246Z,5.10
2023-02-28T14:13:06.127Z,4.30
2023-02-28T14:15:58.481Z,5.80
2023-02-28T14:18:38.210Z,5.80
2023-02-28T14:21:08.426Z,6.00
2023-02-28T14:24:26.071Z,5.90
2023-02-28T14:27:21.478Z,6.70
2023-02-28T14:29:50.581Z,6.40
2023-02-28T14:32:46.101Z,6.50
2023-02-28T14:35:51.175Z,6.20
2023-02-28T14:38:52.512Z,6.70
2023-02-28T14:41:31.334Z,5.40
2023-02-28T14:44:05.641Z,6.50
2023-02-28T14:47:05.040Z,6.60
2023-02-28T14:49:41.295Z,5.80
2023-02-28T14:52:23.718Z,5.20
2023-02-28T14:55:12.673Z,4.70
2023-02-28T14:58:34.588Z,6.40
2023-02-28T15:01:11.261Z,6.10
2023-02-28T15:03:47.545Z,6.20
2023-02-28T15:09:33.531Z,6.80
2023-02-28T15:12:22.508Z,5.80
2023-02-28T15:14:54.274Z,6.60
2023-02-28T15:17:35.892Z,7.30
2023-02-28T15:21:21.257Z,6.90
2023-02-28T15:24:43.111Z,6.50
2023-02-28T15:28:25.917Z,7.40
2023-02-28T15:31:02.410Z,7.10
2023-02-28T15:33:36.300Z,6.30
2023-02-28T15:36:20.621Z,7.10
2023-02-28T15:38:55.052Z,6.00
2023-02-28T15:41:40.033Z,6.60
2023-02-28T15:44:16.217Z,5.80
2023-02-28T15:47:03.804Z,6.50
2023-02-28T15:49:57.053Z,6.60
2023-02-28T15:52:41.722Z,5.10
2023-02-28T15:55:37.520Z,6.90
2023-02-28T15:58:08.993Z,6.60
2023-02-28T16:00:36.755Z,6.60
2023-02-28T16:03:27.992Z,6.40
2023-02-28T16:06:34.368Z,7.40
2023-02-28T16:09:12.254Z,6.10
2023-02-28T16:11:49.492Z,6.80
2023-02-28T16:14:21.273Z,6.30
2023-02-28T16:17:22.492Z,7.00
2023-02-28T16:19:51.005Z,7.20
2023-02-28T16:22:20.894Z,6.20
2023-02-28T16:24:50.523Z,6.80
2023-02-28T16:27:36.747Z,7.80
2023-02-28T16:30:24.472Z,7.70
2023-02-28T16:33:00.035Z,6.60
2023-02-28T16:35:39.748Z,7.40
2023-02-28T16:38:12.423Z,7.40
2023-02-28T16:40:43.908Z,9.30
2023-02-28T16:43:24.364Z,7.30
2023-02-28T16:45:59.740Z,10.30
2023-02-28T16:48:32.488Z,8.90
2023-02-28T16:51:06.109Z,8.60
2023-02-28T16:53:36.318Z,8.70
2023-02-28T16:56:11.857Z,8.00
2023-02-28T16:58:50.086Z,8.10
2023-02-28T17:01:27.042Z,7.80
2023-02-28T17:03:59.768Z,6.80
2023-02-28T17:06:33.327Z,6.50
2023-02-28T17:09:05.088Z,6.10
2023-02-28T17:11:42.006Z,7.00
2023-02-28T17:14:13.276Z,6.80
2023-02-28T17:16:44.229Z,7.40
2023-02-28T17:19:21.371Z,7.30
2023-02-28T17:21:50.707Z,7.10
2023-02-28T17:27:01.825Z,6.00
2023-02-28T17:29:30.998Z,6.90
2023-02-28T17:32:03.121Z,6.90
2023-02-28T17:34:45.192Z,7.90
2023-02-28T17:37:14.815Z,6.30
2023-02-28T17:39:45.236Z,6.70
2023-02-28T17:42:31.560Z,8.10
2023-02-28T17:44:59.991Z,6.80
2023-02-28T17:47:29.234Z,7.70
2023-02-28T17:49:58.480Z,7.40
2023-02-28T17:52:36.627Z,7.00
2023-02-28T17:55:13.031Z,7.90
2023-02-28T17:58:09.546Z,5.80
2023-02-28T18:00:47.850Z,7.10
2023-02-28T18:03:21.637Z,7.60
2023-02-28T18:05:52.786Z,6.90
2023-02-28T18:08:32.438Z,6.60
2023-02-28T18:11:18.296Z,8.50
2023-02-28T18:13:56.485Z,9.60
2023-02-28T18:16:30.116Z,10.00
2023-02-28T18:19:05.189Z,8.50
2023-02-28T18:21:46.918Z,8.90
2023-02-28T18:24:24.919Z,9.20
2023-02-28T18:27:00.389Z,7.80
2023-02-28T18:29:29.841Z,8.50
2023-02-28T18:31:58.345Z,10.30
2023-02-28T18:34:27.098Z,8.10
2023-02-28T18:36:56.538Z,9.00
2023-02-28T18:39:25.563Z,9.10
2023-02-28T18:41:54.865Z,9.50
2023-02-28T18:44:23.625Z,9.90
2023-02-28T18:46:56.753Z,9.30
2023-02-28T18:49:33.645Z,10.10
2023-02-28T18:52:07.604Z,9.60
2023-02-28T18:54:39.665Z,9.80
2023-02-28T18:57:09.912Z,10.10
2023-02-28T18:59:39.165Z,11.30
2023-02-28T19:02:09.348Z,11.40
2023-02-28T19:04:41.082Z,9.50
2023-02-28T19:07:11.488Z,9.20
2023-02-28T19:09:43.370Z,11.20
2023-02-28T19:12:14.098Z,10.70
2023-02-28T19:14:50.330Z,11.10
2023-02-28T19:17:22.744Z,10.10
2023-02-28T19:19:53.676Z,10.40
2023-02-28T19:22:23.013Z,10.30
2023-02-28T19:24:59.629Z,11.10
2023-02-28T19:27:29.307Z,11.80
2023-02-28T19:29:59.469Z,11.00
2023-02-28T19:32:28.306Z,11.00
2023-02-28T19:34:57.175Z,12.00
2023-02-28T19:37:25.557Z,13.00
2023-02-28T19:39:57.149Z,10.30
2023-02-28T19:42:28.885Z,10.30
2023-02-28T19:44:57.212Z,11.70
2023-02-28T19:47:26.224Z,10.40
2023-02-28T19:49:58.210Z,11.50
2023-02-28T19:52:27.824Z,11.80
2023-02-28T19:55:01.128Z,11.40
2023-02-28T19:57:34.522Z,10.40
2023-02-28T20:00:11.872Z,10.70
2023-02-28T20:02:45.079Z,10.40
2023-02-28T20:05:14.671Z,10.10
2023-02-28T20:07:44.060Z,10.90
2023-02-28T20:10:13.115Z,11.30
2023-02-28T20:12:41.858Z,10.10
2023-02-28T20:15:12.643Z,10.60
2023-02-28T20:17:47.561Z,11.60
2023-02-28T20:20:16.423Z,10.90
2023-02-28T20:22:46.602Z,10.70
2023-02-28T20:25:25.570Z,11.40
2023-02-28T20:27:54.526Z,8.70
2023-02-28T20:30:24.978Z,10.80
2023-02-28T20:33:08.732Z,11.20
2023-02-28T20:35:53.485Z,9.50
2023-02-28T20:38:24.907Z,10.60
2023-02-28T20:41:01.705Z,11.10
2023-02-28T20:43:30.717Z,9.00
2023-02-28T20:46:05.571Z,9.10
2023-02-28T20:48:37.284Z,9.50
2023-02-28T20:51:06.372Z,10.50
2023-02-28T20:53:36.654Z,9.30
2023-02-28T20:56:12.861Z,8.60
2023-02-28T20:58:46.080Z,9.30
2023-02-28T21:01:26.389Z,10.20
2023-02-28T21:03:56.918Z,9.30
2023-02-28T21:06:29.042Z,9.90
2023-02-28T21:08:58.617Z,10.00
2023-02-28T21:11:28.879Z,9.80
2023-02-28T21:14:04.026Z,8.70
2023-02-28T21:16:38.326Z,8.70
2023-02-28T21:19:07.458Z,10.10
2023-02-28T21:22:07.417Z,10.10
2023-02-28T21:24:40.436Z,10.70
2023-02-28T21:27:14.860Z,10.50
2023-02-28T21:29:49.132Z,10.90
2023-02-28T21:32:25.473Z,12.10
2023-02-28T21:35:06.277Z,11.50
2023-02-28T21:37:39.901Z,9.10
2023-02-28T21:40:09.505Z,10.50
2023-02-28T21:43:11.351Z,9.50
2023-02-28T21:45:44.385Z,11.70
2023-02-28T21:48:13.076Z,9.30
2023-02-28T21:50:41.619Z,9.90
2023-02-28T21:53:16.967Z,10.50
2023-02-28T21:55:47.247Z,11.30
2023-02-28T21:58:25.202Z,11.10
2023-02-28T22:00:55.715Z,9.80
2023-02-28T22:03:27.947Z,10.20
2023-02-28T22:05:57.629Z,11.10
2023-02-28T23:01:32.319Z,9.20
2023-02-28T23:04:26.196Z,9.80
2023-02-28T23:07:07.089Z,9.40
2023-02-28T23:09:37.009Z,9.90
2023-02-28T23:16:08.719Z,9.80
2023-02-28T23:22:06.901Z,9.10
2023-02-28T23:24:41.742Z,11.30
2023-02-28T23:27:14.525Z,9.90
2023-02-28T23:29:45.646Z,10.40
2023-02-28T23:32:15.275Z,10.70
2023-02-28T23:34:46.067Z,10.50
2023-02-28T23:37:15.069Z,8.80
2023-02-28T23:39:46.695Z,10.10
2023-02-28T23:42:22.887Z,10.10
2023-02-28T23:44:55.909Z,9.30
2023-02-28T23:47:32.058Z,9.40
2023-02-28T23:50:11.632Z,9.20
2023-02-28T23:52:40.741Z,9.00
2023-02-28T23:55:14.280Z,8.50
2023-02-28T23:57:43.092Z,9.50
